createdAt,value
2022-08-22T00:01:15.118Z,22.00
2022-08-22T00:02:57.967Z,22.03
2022-08-22T00:03:11.474Z,22.23
2022-08-22T00:03:58.957Z,22.01
2022-08-22T00:06:45.915Z,22.01
2022-08-22T00:09:37.286Z,21.99
2022-08-22T00:12:15.208Z,21.94
2022-08-22T00:15:03.962Z,21.92
2022-08-22T00:17:40.329Z,21.88
2022-08-22T00:20:28.320Z,21.87
2022-08-22T00:23:21.315Z,21.84
2022-08-22T00:26:09.442Z,21.85
2022-08-22T00:28:49.312Z,21.88
2022-08-22T00:31:27.073Z,21.88
2022-08-22T00:34:06.170Z,21.86
2022-08-22T00:36:56.464Z,21.80
2022-08-22T00:39:40.534Z,21.73
2022-08-22T00:42:32.053Z,21.68
2022-08-22T00:45:22.851Z,21.67
2022-08-22T00:48:08.002Z,21.68
2022-08-22T00:51:18.565Z,21.65
2022-08-22T00:53:52.730Z,21.68
2022-08-22T00:56:25.085Z,21.67
2022-08-22T00:59:42.250Z,21.63
2022-08-22T01:02:29.669Z,21.64
2022-08-22T01:05:21.952Z,21.63
2022-08-22T01:08:07.249Z,21.63
2022-08-22T01:11:01.261Z,21.60
2022-08-22T01:13:48.135Z,21.61
2022-08-22T01:16:17.722Z,21.61
2022-08-22T01:19:06.742Z,21.59
2022-08-22T01:21:43.411Z,21.55
2022-08-22T01:25:17.672Z,21.50
2022-08-22T01:28:18.944Z,21.46
2022-08-22T01:31:10.778Z,21.41
2022-08-22T01:33:38.203Z,21.44
2022-08-22T01:36:30.407Z,21.42
2022-08-22T01:39:01.636Z,21.41
2022-08-22T01:41:39.406Z,21.39
2022-08-22T01:44:19.136Z,21.38
2022-08-22T01:46:51.575Z,21.40
2022-08-22T01:49:24.468Z,21.40
2022-08-22T01:52:01.843Z,21.40
2022-08-22T01:55:17.153Z,21.38
2022-08-22T01:58:17.795Z,21.30
2022-08-22T02:01:06.465Z,21.24
2022-08-22T02:03:51.458Z,21.21
2022-08-22T02:06:24.504Z,21.18
2022-08-22T02:09:02.943Z,21.17
2022-08-22T02:11:46.517Z,21.15
2022-08-22T02:14:54.692Z,21.13
2022-08-22T02:17:33.390Z,21.14
2022-08-22T02:20:23.253Z,21.14
2022-08-22T02:23:19.126Z,21.16
2022-08-22T02:26:03.779Z,21.18
2022-08-22T02:29:04.688Z,21.22
2022-08-22T02:31:47.954Z,21.27
2022-08-22T02:34:22.309Z,21.30
2022-08-22T02:37:03.306Z,21.33
2022-08-22T02:39:38.448Z,21.36
2022-08-22T02:42:32.777Z,21.38
2022-08-22T02:45:21.962Z,21.38
2022-08-22T02:48:13.571Z,21.39
2022-08-22T02:50:52.471Z,21.39
2022-08-22T02:53:55.873Z,21.38
2022-08-22T02:56:32.325Z,21.38
2022-08-22T02:59:30.771Z,21.35
2022-08-22T03:01:57.933Z,21.35
2022-08-22T03:04:30.477Z,21.34
2022-08-22T03:07:22.583Z,21.29
2022-08-22T03:09:51.739Z,21.26
2022-08-22T03:12:25.470Z,21.21
2022-08-22T03:15:11.824Z,21.21
2022-08-22T03:17:51.005Z,21.22
2022-08-22T03:20:38.781Z,21.24
2022-08-22T03:23:56.884Z,21.27
2022-08-22T03:26:33.486Z,21.29
2022-08-22T03:29:08.842Z,21.30
2022-08-22T03:31:35.974Z,21.31
2022-08-22T03:34:22.650Z,21.30
2022-08-22T03:37:21.009Z,21.32
2022-08-22T03:39:59.817Z,21.31
2022-08-22T03:42:54.164Z,21.31
2022-08-22T03:45:51.427Z,21.31
2022-08-22T03:48:23.756Z,21.33
2022-08-22T03:51:18.105Z,21.32
2022-08-22T03:53:59.887Z,21.31
2022-08-22T03:56:58.895Z,21.25
2022-08-22T04:00:05.941Z,21.23
2022-08-22T04:02:43.855Z,21.22
2022-08-22T04:05:44.039Z,21.18
2022-08-22T04:08:26.422Z,21.15
2022-08-22T04:11:21.672Z,21.10
2022-08-22T04:14:34.122Z,21.08
2022-08-22T04:17:35.178Z,21.06
2022-08-22T04:20:26.675Z,21.07
2022-08-22T04:23:26.625Z,21.06
2022-08-22T04:26:01.863Z,21.04
2022-08-22T04:28:52.996Z,21.01
2022-08-22T04:31:29.542Z,20.98
2022-08-22T04:34:24.927Z,20.92
2022-08-22T04:37:09.849Z,20.88
2022-08-22T04:39:41.724Z,20.84
2022-08-22T04:42:32.246Z,20.83
2022-08-22T04:45:23.587Z,20.82
2022-08-22T04:48:27.023Z,20.79
2022-08-22T04:51:08.182Z,20.81
2022-08-22T04:53:55.021Z,20.79
2022-08-22T04:56:46.060Z,20.77
2022-08-22T04:59:17.783Z,20.75
2022-08-22T05:01:46.779Z,20.76
2022-08-22T05:04:26.331Z,20.74
2022-08-22T05:07:15.818Z,20.69
2022-08-22T05:09:48.988Z,20.65
2022-08-22T05:12:25.137Z,20.64
2022-08-22T05:15:07.263Z,20.66
2022-08-22T05:17:38.821Z,20.66
2022-08-22T05:20:10.707Z,20.66
2022-08-22T05:22:48.762Z,20.67
2022-08-22T05:25:21.912Z,20.68
2022-08-22T05:27:53.307Z,20.71
2022-08-22T05:30:28.289Z,20.73
2022-08-22T05:33:32.203Z,20.74
2022-08-22T05:36:09.038Z,20.77
2022-08-22T05:38:41.320Z,20.76
2022-08-22T05:41:17.452Z,20.74
2022-08-22T05:43:48.990Z,20.74
2022-08-22T05:46:47.986Z,20.74
2022-08-22T05:49:22.357Z,20.78
2022-08-22T05:52:06.757Z,20.85
2022-08-22T05:54:56.945Z,20.88
2022-08-22T05:57:35.217Z,20.92
2022-08-22T06:00:12.745Z,20.96
2022-08-22T06:02:48.298Z,21.01
2022-08-22T06:05:23.706Z,21.06
2022-08-22T06:07:53.507Z,21.11
2022-08-22T06:10:23.064Z,21.18
2022-08-22T06:13:00.140Z,21.23
2022-08-22T06:15:51.656Z,21.30
2022-08-22T06:18:26.714Z,21.36
2022-08-22T06:20:58.177Z,21.39
2022-08-22T06:23:27.802Z,21.44
2022-08-22T06:25:59.536Z,21.50
2022-08-22T06:28:54.780Z,21.56
2022-08-22T06:31:43.287Z,21.62
2022-08-22T06:34:15.678Z,21.69
2022-08-22T06:36:48.438Z,21.73
2022-08-22T06:39:36.619Z,21.76
2022-08-22T06:42:16.355Z,21.80
2022-08-22T06:44:50.034Z,21.87
2022-08-22T06:47:22.831Z,21.96
2022-08-22T06:49:54.441Z,22.03
2022-08-22T06:52:25.003Z,22.11
2022-08-22T06:55:00.262Z,22.20
2022-08-22T06:57:34.770Z,22.28
2022-08-22T07:00:07.510Z,22.39
2022-08-22T07:02:40.810Z,22.46
2022-08-22T07:05:13.838Z,22.52
2022-08-22T07:07:40.354Z,22.62
2022-08-22T07:10:07.037Z,22.71
2022-08-22T07:12:37.772Z,22.80
2022-08-22T07:15:20.663Z,22.90
2022-08-22T07:17:53.622Z,22.97
2022-08-22T07:20:27.902Z,23.04
2022-08-22T07:23:23.516Z,23.09
2022-08-22T07:26:06.674Z,23.17
2022-08-22T07:28:58.666Z,23.20
2022-08-22T07:31:39.874Z,23.25
2022-08-22T07:34:38.098Z,23.30
2022-08-22T07:37:31.330Z,23.38
2022-08-22T07:40:00.917Z,23.46
2022-08-22T07:42:30.481Z,23.54
2022-08-22T07:45:29.355Z,23.60
2022-08-22T07:48:25.548Z,23.69
2022-08-22T07:51:17.550Z,23.81
2022-08-22T07:54:00.992Z,23.92
2022-08-22T07:56:33.257Z,24.02
2022-08-22T07:59:12.834Z,24.11
2022-08-22T08:01:45.873Z,24.17
2022-08-22T08:04:20.865Z,24.24
2022-08-22T08:06:51.370Z,24.33
2022-08-22T08:09:19.635Z,24.42
2022-08-22T08:11:49.171Z,24.51
2022-08-22T08:14:23.429Z,24.57
2022-08-22T08:17:23.689Z,24.63
2022-08-22T08:19:51.885Z,24.82
2022-08-22T08:22:24.791Z,25.01
2022-08-22T08:24:56.115Z,25.21
2022-08-22T08:27:44.999Z,25.39
2022-08-22T08:30:46.621Z,25.58
2022-08-22T08:33:26.272Z,25.82
2022-08-22T08:36:16.478Z,26.05
2022-08-22T08:38:55.098Z,26.26
2022-08-22T08:42:03.126Z,26.42
2022-08-22T08:45:07.281Z,26.55
2022-08-22T08:47:52.054Z,26.65
2022-08-22T08:50:40.538Z,26.75
2022-08-22T08:53:26.113Z,26.83
2022-08-22T08:56:26.079Z,26.93
2022-08-22T08:59:10.823Z,27.01
2022-08-22T09:01:46.163Z,27.06
2022-08-22T09:04:35.777Z,27.13
2022-08-22T09:07:21.206Z,27.19
2022-08-22T09:09:52.542Z,27.27
2022-08-22T09:12:56.518Z,27.39
2022-08-22T09:16:11.853Z,27.50
2022-08-22T09:19:02.344Z,27.54
2022-08-22T09:21:47.280Z,27.60
2022-08-22T09:24:52.426Z,27.73
2022-08-22T09:27:29.747Z,27.88
2022-08-22T09:30:19.852Z,28.01
2022-08-22T09:32:59.200Z,28.19
2022-08-22T09:35:28.223Z,28.27
2022-08-22T09:38:12.561Z,28.33
2022-08-22T09:41:17.462Z,28.39
2022-08-22T09:44:22.355Z,28.42
2022-08-22T09:47:03.026Z,28.45
2022-08-22T09:49:44.865Z,28.45
2022-08-22T09:52:34.238Z,28.43
2022-08-22T09:55:08.606Z,28.44
2022-08-22T09:57:52.278Z,28.43
2022-08-22T10:00:28.490Z,28.49
2022-08-22T10:03:10.385Z,28.55
2022-08-22T10:05:47.227Z,28.63
2022-08-22T10:08:32.101Z,28.69
2022-08-22T10:11:21.069Z,28.75
2022-08-22T10:13:56.570Z,28.82
2022-08-22T10:16:57.025Z,28.84
2022-08-22T10:19:38.188Z,28.85
2022-08-22T10:22:19.782Z,28.92
2022-08-22T10:25:07.527Z,28.98
2022-08-22T10:27:40.216Z,29.05
2022-08-22T10:30:11.765Z,29.07
2022-08-22T10:33:29.077Z,29.06
2022-08-22T10:36:14.099Z,29.17
2022-08-22T10:38:47.482Z,29.25
2022-08-22T10:41:22.623Z,29.30
2022-08-22T10:44:01.204Z,29.33
2022-08-22T10:46:36.771Z,29.38
2022-08-22T10:49:15.369Z,29.48
2022-08-22T10:52:16.379Z,29.55
2022-08-22T10:55:11.083Z,29.64
2022-08-22T10:57:40.312Z,29.71
2022-08-22T11:00:25.478Z,29.73
2022-08-22T11:03:10.417Z,29.76
2022-08-22T11:05:47.803Z,29.84
2022-08-22T11:08:41.458Z,29.91
2022-08-22T11:11:25.249Z,29.97
2022-08-22T11:14:24.389Z,30.05
2022-08-22T11:17:02.783Z,30.15
2022-08-22T11:19:46.765Z,30.24
2022-08-22T11:22:32.006Z,30.30
2022-08-22T11:25:14.226Z,30.40
2022-08-22T11:27:59.231Z,30.41
2022-08-22T11:30:50.880Z,30.49
2022-08-22T11:33:33.808Z,30.63
2022-08-22T11:36:34.485Z,30.83
2022-08-22T11:39:06.562Z,30.93
2022-08-22T11:41:53.260Z,30.99
2022-08-22T11:44:43.053Z,30.98
2022-08-22T11:47:26.628Z,31.02
2022-08-22T11:50:13.815Z,31.03
2022-08-22T11:52:51.644Z,31.03
2022-08-22T11:55:50.976Z,31.04
2022-08-22T11:58:48.445Z,31.00
2022-08-22T12:01:23.512Z,31.11
2022-08-22T12:04:31.456Z,31.26
2022-08-22T12:07:18.662Z,31.46
2022-08-22T12:09:55.187Z,31.66
2022-08-22T12:12:36.075Z,31.80
2022-08-22T12:15:21.330Z,31.89
2022-08-22T12:18:15.342Z,31.95
2022-08-22T12:21:24.212Z,31.99
2022-08-22T12:24:21.556Z,31.95
2022-08-22T12:27:08.068Z,31.91
2022-08-22T12:29:56.838Z,31.91
2022-08-22T12:33:23.051Z,31.87
2022-08-22T12:36:18.150Z,31.85
2022-08-22T12:38:53.882Z,31.92
2022-08-22T12:41:37.401Z,31.95
2022-08-22T12:44:41.286Z,31.93
2022-08-22T12:47:17.346Z,31.86
2022-08-22T12:50:01.899Z,31.80
2022-08-22T12:52:41.509Z,31.80
2022-08-22T12:55:48.721Z,31.84
2022-08-22T12:58:41.465Z,31.85
2022-08-22T13:01:10.880Z,31.88
2022-08-22T13:03:48.866Z,31.89
2022-08-22T13:07:02.798Z,31.89
2022-08-22T13:09:33.927Z,31.78
2022-08-22T13:12:19.930Z,31.67
2022-08-22T13:14:53.312Z,31.61
2022-08-22T13:17:24.319Z,31.60
2022-08-22T13:20:24.244Z,31.59
2022-08-22T13:22:54.679Z,31.55
2022-08-22T13:25:25.514Z,31.44
2022-08-22T13:28:00.061Z,31.42
2022-08-22T13:30:37.530Z,31.43
2022-08-22T13:33:15.929Z,31.45
2022-08-22T13:36:00.296Z,31.45
2022-08-22T13:38:34.698Z,31.46
2022-08-22T13:41:04.855Z,31.48
2022-08-22T13:43:59.705Z,31.45
2022-08-22T13:46:35.528Z,31.47
2022-08-22T13:49:07.146Z,31.45
2022-08-22T13:52:08.327Z,31.42
2022-08-22T13:54:59.692Z,31.38
2022-08-22T13:57:37.796Z,31.35
2022-08-22T14:00:57.462Z,31.37
2022-08-22T14:03:35.055Z,31.36
2022-08-22T14:06:37.767Z,31.35
2022-08-22T14:09:13.487Z,31.37
2022-08-22T14:11:48.485Z,31.38
2022-08-22T14:14:31.822Z,31.39
2022-08-22T14:16:59.504Z,31.43
2022-08-22T14:19:58.740Z,31.44
2022-08-22T14:22:31.707Z,31.52
2022-08-22T14:25:08.532Z,31.54
2022-08-22T14:27:57.604Z,31.59
2022-08-22T14:30:38.836Z,31.64
2022-08-22T14:33:27.943Z,31.72
2022-08-22T14:36:02.059Z,31.83
2022-08-22T14:38:36.473Z,31.87
2022-08-22T14:41:09.899Z,31.91
2022-08-22T14:43:52.894Z,31.91
2022-08-22T14:46:29.195Z,31.93
2022-08-22T14:49:47.620Z,31.95
2022-08-22T14:52:29.599Z,32.05
2022-08-22T14:55:11.898Z,32.08
2022-08-22T14:57:45.375Z,32.14
2022-08-22T15:00:13.486Z,32.20
2022-08-22T15:02:41.798Z,32.24
2022-08-22T15:05:22.641Z,32.29
2022-08-22T15:07:56.055Z,32.36
2022-08-22T15:10:34.357Z,32.38
2022-08-22T15:13:14.603Z,32.41
2022-08-22T15:15:55.027Z,32.45
2022-08-22T15:18:35.706Z,32.47
2022-08-22T15:21:28.923Z,32.47
2022-08-22T15:23:59.802Z,32.46
2022-08-22T15:26:34.121Z,32.49
2022-08-22T15:29:06.961Z,32.51
2022-08-22T15:31:34.377Z,32.53
2022-08-22T15:34:14.001Z,32.46
2022-08-22T15:37:08.484Z,32.35
2022-08-22T15:39:58.998Z,32.25
2022-08-22T15:42:30.578Z,32.17
2022-08-22T15:44:59.043Z,32.09
2022-08-22T15:47:41.517Z,32.01
2022-08-22T15:50:14.772Z,32.02
2022-08-22T15:53:21.926Z,32.00
2022-08-22T15:56:19.563Z,31.97
2022-08-22T15:59:09.197Z,31.90
2022-08-22T16:01:43.912Z,31.83
2022-08-22T16:04:43.744Z,31.79
2022-08-22T16:07:27.420Z,31.77
2022-08-22T16:09:58.873Z,31.76
2022-08-22T16:12:47.950Z,31.67
2022-08-22T16:15:56.531Z,31.63
2022-08-22T16:18:42.547Z,31.64
2022-08-22T16:21:14.230Z,31.63
2022-08-22T16:23:56.208Z,31.57
2022-08-22T16:26:31.665Z,31.50
2022-08-22T16:29:13.449Z,31.45
2022-08-22T16:31:43.870Z,31.43
2022-08-22T16:34:16.676Z,31.40
2022-08-22T16:37:22.171Z,31.37
2022-08-22T16:39:50.934Z,31.35
2022-08-22T16:42:22.271Z,31.33
2022-08-22T16:44:56.671Z,31.25
2022-08-22T16:47:41.737Z,31.19
2022-08-22T16:50:09.102Z,31.15
2022-08-22T16:52:50.301Z,31.16
2022-08-22T16:55:29.960Z,31.08
2022-08-22T16:58:07.021Z,31.02
2022-08-22T17:00:36.837Z,30.95
2022-08-22T17:03:18.470Z,30.88
2022-08-22T17:05:50.833Z,30.82
2022-08-22T17:08:23.315Z,30.75
2022-08-22T17:11:17.710Z,30.67
2022-08-22T17:14:23.441Z,30.59
2022-08-22T17:16:54.478Z,30.53
2022-08-22T17:19:43.226Z,30.46
2022-08-22T17:22:24.966Z,30.38
2022-08-22T17:25:13.603Z,30.30
2022-08-22T17:27:44.802Z,30.24
2022-08-22T17:30:22.193Z,30.16
2022-08-22T17:33:27.842Z,30.11
2022-08-22T17:36:04.161Z,30.03
2022-08-22T17:39:12.385Z,29.91
2022-08-22T17:42:29.333Z,29.86
2022-08-22T17:45:32.710Z,29.78
2022-08-22T17:48:14.057Z,29.72
2022-08-22T17:50:48.824Z,29.66
2022-08-22T17:53:52.611Z,29.56
2022-08-22T17:56:41.794Z,29.48
2022-08-22T17:59:30.109Z,29.35
2022-08-22T18:02:16.300Z,29.27
2022-08-22T18:05:07.996Z,29.15
2022-08-22T18:07:54.779Z,29.06
2022-08-22T18:10:50.334Z,28.93
2022-08-22T18:13:37.454Z,28.83
2022-08-22T18:16:13.462Z,28.74
2022-08-22T18:19:16.921Z,28.64
2022-08-22T18:22:04.260Z,28.55
2022-08-22T18:24:44.619Z,28.46
2022-08-22T18:27:34.429Z,28.38
2022-08-22T18:30:05.238Z,28.28
2022-08-22T18:32:43.230Z,28.18
2022-08-22T18:35:42.924Z,28.10
2022-08-22T18:38:19.448Z,28.01
2022-08-22T18:40:52.301Z,27.95
2022-08-22T18:43:45.090Z,27.85
2022-08-22T18:46:37.657Z,27.78
2022-08-22T18:49:33.917Z,27.73
2022-08-22T18:52:09.534Z,27.65
2022-08-22T18:54:46.186Z,27.57
2022-08-22T18:57:47.105Z,27.49
2022-08-22T19:00:59.416Z,27.40
2022-08-22T19:04:04.266Z,27.34
2022-08-22T19:06:52.166Z,27.27
2022-08-22T19:09:41.063Z,27.18
2022-08-22T19:12:50.321Z,27.09
2022-08-22T19:15:38.805Z,27.03
2022-08-22T19:18:26.719Z,26.95
2022-08-22T19:21:47.660Z,26.86
2022-08-22T19:24:26.155Z,26.80
2022-08-22T19:27:10.989Z,26.70
2022-08-22T19:29:37.539Z,26.64
2022-08-22T19:32:12.761Z,26.58
2022-08-22T19:34:47.001Z,26.54
2022-08-22T19:37:31.922Z,26.51
2022-08-22T19:40:11.722Z,26.47
2022-08-22T19:42:41.497Z,26.44
2022-08-22T19:45:25.616Z,26.41
2022-08-22T19:47:59.675Z,26.39
2022-08-22T19:50:33.136Z,26.37
2022-08-22T19:53:22.517Z,26.37
2022-08-22T19:56:18.447Z,26.31
2022-08-22T19:59:03.504Z,26.31
2022-08-22T20:01:55.935Z,26.32
2022-08-22T20:04:34.627Z,26.29
2022-08-22T20:07:14.758Z,26.26
2022-08-22T20:10:09.185Z,26.24
2022-08-22T20:12:54.316Z,26.22
2022-08-22T20:15:25.886Z,26.22
2022-08-22T20:20:57.764Z,26.17
2022-08-22T20:23:32.122Z,26.16
2022-08-22T20:25:59.707Z,26.13
2022-08-22T20:28:54.166Z,26.13
2022-08-22T20:31:26.991Z,26.14
2022-08-22T20:34:26.656Z,26.11
2022-08-22T20:37:09.834Z,26.11
2022-08-22T20:39:59.122Z,26.08
2022-08-22T20:42:30.523Z,26.09
2022-08-22T20:44:59.330Z,26.06
2022-08-22T20:47:36.205Z,26.04
2022-08-22T20:50:11.918Z,26.04
2022-08-22T20:52:51.969Z,26.02
2022-08-22T20:55:27.302Z,26.02
2022-08-22T20:58:22.071Z,25.99
2022-08-22T21:00:51.275Z,26.00
2022-08-22T21:03:29.234Z,25.96
2022-08-22T21:05:55.810Z,25.94
2022-08-22T21:08:26.336Z,25.92
2022-08-22T21:11:39.276Z,25.90
2022-08-22T21:14:25.141Z,25.89
2022-08-22T21:16:53.099Z,25.89
2022-08-22T21:19:24.810Z,25.86
2022-08-22T21:21:51.393Z,25.85
2022-08-22T21:24:21.802Z,25.81
2022-08-22T21:26:55.956Z,25.78
2022-08-22T21:29:32.970Z,25.76
2022-08-22T21:32:31.173Z,25.73
2022-08-22T21:34:58.571Z,25.73
2022-08-22T21:37:33.350Z,25.70
2022-08-22T21:40:15.396Z,25.66
2022-08-22T21:42:44.798Z,25.62
2022-08-22T21:45:44.253Z,25.57
2022-08-22T21:48:35.134Z,25.53
2022-08-22T21:51:29.838Z,25.48
2022-08-22T21:54:24.157Z,25.41
2022-08-22T21:56:53.161Z,25.37
2022-08-22T21:59:21.447Z,25.31
2022-08-22T22:01:52.303Z,25.27
2022-08-22T22:04:19.500Z,25.24
2022-08-22T22:06:45.982Z,25.21
2022-08-22T22:09:15.214Z,25.17
2022-08-22T22:11:41.869Z,25.13
2022-08-22T22:14:08.723Z,25.10
2022-08-22T22:16:35.380Z,25.07
2022-08-22T22:19:01.945Z,25.04
2022-08-22T22:21:28.915Z,25.01
2022-08-22T22:23:59.709Z,24.99
2022-08-22T22:26:26.651Z,24.95
2022-08-22T22:28:53.180Z,24.91
2022-08-22T22:31:19.697Z,24.87
2022-08-22T22:33:50.534Z,24.83
2022-08-22T22:36:24.867Z,24.81
2022-08-22T22:38:52.472Z,24.77
2022-08-22T22:41:20.223Z,24.76
2022-08-22T22:43:46.887Z,24.74
2022-08-22T22:46:13.516Z,24.69
2022-08-22T22:48:40.029Z,24.67
2022-08-22T22:51:09.912Z,24.62
2022-08-22T22:53:43.716Z,24.58
2022-08-22T22:56:18.090Z,24.53
2022-08-22T22:58:49.259Z,24.48
2022-08-22T23:01:25.531Z,24.43
2022-08-22T23:03:58.566Z,24.37
2022-08-22T23:06:31.285Z,24.34
2022-08-22T23:08:58.699Z,24.30
2022-08-22T23:11:28.744Z,24.26
2022-08-22T23:14:01.526Z,24.23
2022-08-22T23:16:28.946Z,24.19
2022-08-22T23:18:56.296Z,24.14
2022-08-22T23:21:26.457Z,24.09
2022-08-22T23:23:57.406Z,24.04
2022-08-22T23:26:24.067Z,24.01
2022-08-22T23:28:50.646Z,23.98
2022-08-22T23:31:48.937Z,23.91
2022-08-22T23:34:18.347Z,23.88
2022-08-22T23:36:46.593Z,23.83
2022-08-22T23:39:15.680Z,23.80
2022-08-22T23:41:43.569Z,23.72
2022-08-22T23:44:13.479Z,23.64
2022-08-22T23:46:41.081Z,23.59
2022-08-22T23:49:07.807Z,23.53
2022-08-22T23:51:34.868Z,23.50
2022-08-22T23:54:03.616Z,23.43
2022-08-22T23:56:45.252Z,23.39
2022-08-22T23:59:20.086Z,23.35
